Easington, United Kingdom
Current Conditions -  °F | °C
As of 10:50 AM on Monday 22 Dec 2014 (Local Time) from EGXS Reporting Station
Broken Clouds Broken Clouds  
Wind Chill: 55°   Ceiling: 2600
Heat Index: 55°   Visibility: 6mi
Dew Point: 48°   Wind: 28mph
Humidity: 77%   Direction: 220°SW
Pressure: 29.8"   Gusts: NA
Location:  53.65°N, 0.13°E
Report Text: EGXS 221050Z AUTO 22024KT 9999 // BKN026/// 13/09 Q1009
Loading
Personal Weather Stations






























Interactive Weather Map New forecast layout! Learn more

10-Day Weather Forecast

Advertisements
Track Severe Weather on mobile